Time;durP1;ratioP1;P1;durP2;ratioP2;P2;SDS_P1;SDS_P2;PMS_P1;PMS_P2;Temp;Humidity;BMP_temperature;BMP_pressure;BME280_temperature;BME280_humidity;BME280_pressure;Samples;Min_cycle;Max_cycle;Signal;HPM_P1;HPM_P2
2023/01/01 00:00:07;;;;;;;;;;;13.20;99.90;;;;;;5053093;28;19948;-81
2023/01/01 00:02:39;;;;;;;;;;;13.20;99.90;;;;;;5052543;28;19971;-81
2023/01/01 00:05:05;;;;;;;;;;;13.20;99.90;;;;;;5051904;28;19904;-79
2023/01/01 00:07:31;;;;;;;;;;;13.10;99.90;;;;;;5052260;28;19924;-81
2023/01/01 00:12:45;;;;;;;;;;;12.90;99.90;;;;;;5051694;28;19920;-79
2023/01/01 00:15:10;;;;;;;;;;;12.90;99.90;;;;;;5050843;28;19904;-80
2023/01/01 00:17:36;;;;;;;;;;;12.80;99.90;;;;;;5051713;28;19950;-78
2023/01/01 00:20:03;;;;;;;;;;;12.80;99.90;;;;;;5045055;28;20003;-77
2023/01/01 00:22:29;;;;;;;;;;;12.80;99.90;;;;;;5052212;28;20375;-79
2023/01/01 00:24:54;;;;;;;;;;;12.70;99.90;;;;;;5050700;28;19983;-79
2023/01/01 00:27:20;;;;;;;;;;;12.60;99.90;;;;;;5051977;28;20399;-80
2023/01/01 00:29:52;;;;;;;;;;;12.60;99.90;;;;;;5051616;28;19905;-79
2023/01/01 00:32:21;;;;;;;;;;;12.70;99.90;;;;;;5051697;28;19905;-80
2023/01/01 00:35:02;;;;;;;;;;;12.70;99.90;;;;;;5033297;28;19909;-79
2023/01/01 00:37:28;;;;;;;;;;;12.70;99.90;;;;;;5051579;28;19944;-79
2023/01/01 00:39:56;;;;;;;;;;;12.70;99.90;;;;;;5051116;28;20383;-80
2023/01/01 00:42:21;;;;;;;;;;;12.70;99.90;;;;;;5052006;28;19916;-80
2023/01/01 00:45:01;;;;;;;;;;;12.70;99.90;;;;;;5052224;28;20276;-80
2023/01/01 00:47:27;;;;;;;;;;;12.70;99.90;;;;;;5052278;28;19977;-79
2023/01/01 00:49:54;;;;;;;;;;;12.70;99.90;;;;;;5052002;28;20353;-80
2023/01/01 00:52:19;;;;;;;;;;;12.70;99.90;;;;;;5051597;28;20002;-80
2023/01/01 00:54:57;;;;;;;;;;;12.60;99.90;;;;;;5054687;28;19947;-82
2023/01/01 00:57:24;;;;;;;;;;;12.70;99.90;;;;;;5051423;28;19904;-81
2023/01/01 00:59:51;;;;;;;;;;;12.70;99.90;;;;;;5051733;28;19916;-80
2023/01/01 01:02:16;;;;;;;;;;;12.70;99.90;;;;;;5051694;28;19905;-81
2023/01/01 01:04:54;;;;;;;;;;;12.70;99.90;;;;;;5051840;28;20245;-81
2023/01/01 01:07:20;;;;;;;;;;;12.70;99.90;;;;;;5051503;28;19925;-80
2023/01/01 01:09:47;;;;;;;;;;;12.70;99.90;;;;;;5051583;28;20237;-81
2023/01/01 01:12:13;;;;;;;;;;;12.70;99.90;;;;;;5051241;28;20005;-81
2023/01/01 01:14:58;;;;;;;;;;;12.70;99.90;;;;;;5051716;28;20019;-81
2023/01/01 01:17:24;;;;;;;;;;;12.60;99.90;;;;;;5051771;28;20044;-81
2023/01/01 01:19:59;;;;;;;;;;;12.60;99.90;;;;;;5051184;28;20013;-81
2023/01/01 01:22:25;;;;;;;;;;;12.60;99.90;;;;;;5051330;28;19912;-81
2023/01/01 01:24:54;;;;;;;;;;;12.60;99.90;;;;;;5033489;28;19909;-80
2023/01/01 01:27:20;;;;;;;;;;;12.60;99.90;;;;;;5051239;28;19945;-80
2023/01/01 01:29:46;;;;;;;;;;;12.60;99.90;;;;;;5051341;28;19911;-80
2023/01/01 01:32:12;;;;;;;;;;;12.60;99.90;;;;;;5051314;28;19923;-80
2023/01/01 01:34:37;;;;;;;;;;;12.60;99.90;;;;;;5051181;28;19905;-80
2023/01/01 01:37:03;;;;;;;;;;;12.60;99.90;;;;;;5033258;28;19905;-79
2023/01/01 01:39:29;;;;;;;;;;;12.60;99.90;;;;;;5050691;28;20007;-79
2023/01/01 01:41:58;;;;;;;;;;;12.60;99.90;;;;;;5032655;28;19917;-80
2023/01/01 01:45:03;;;;;;;;;;;12.60;99.90;;;;;;5050598;28;20012;-80
2023/01/01 01:47:41;;;;;;;;;;;12.60;99.90;;;;;;4989183;28;19940;-79
2023/01/01 01:50:10;;;;;;;;;;;12.60;99.90;;;;;;4989514;28;19989;-80
2023/01/01 01:52:57;;;;;;;;;;;12.70;99.90;;;;;;4973163;28;19942;-80
2023/01/01 01:55:29;;;;;;;;;;;12.70;99.90;;;;;;4989029;28;20323;-79
2023/01/01 01:57:58;;;;;;;;;;;12.70;99.90;;;;;;4988935;28;19905;-80
2023/01/01 02:00:24;;;;;;;;;;;12.60;99.90;;;;;;4988964;28;19906;-80
2023/01/01 02:02:52;;;;;;;;;;;12.60;99.90;;;;;;4973110;28;19910;-80
2023/01/01 02:05:19;;;;;;;;;;;12.60;99.90;;;;;;4989369;28;20329;-79
2023/01/01 02:07:45;;;;;;;;;;;12.50;99.90;;;;;;4989398;28;19906;-80
2023/01/01 02:10:11;;;;;;;;;;;12.50;99.90;;;;;;4990813;28;19906;-75
2023/01/01 02:12:39;;;;;;;;;;;12.50;99.90;;;;;;4989625;28;20388;-81
2023/01/01 02:15:07;;;;;;;;;;;12.50;99.90;;;;;;4989382;28;19913;-80
2023/01/01 02:17:58;;;;;;;;;;;12.50;99.90;;;;;;4998998;28;19905;-78
2023/01/01 02:20:42;;;;;;;;;;;12.60;99.90;;;;;;5031485;28;20043;-81
2023/01/01 02:23:28;;;;;;;;;;;12.60;99.90;;;;;;5031520;28;19943;-80
2023/01/01 02:26:12;;;;;;;;;;;12.60;99.90;;;;;;5032026;28;20012;-81
2023/01/01 02:29:05;;;;;;;;;;;12.60;99.90;;;;;;5050844;28;19971;-79
2023/01/01 02:31:34;;;;;;;;;;;12.70;99.90;;;;;;5050936;28;19905;-80
2023/01/01 02:34:03;;;;;;;;;;;12.80;99.90;;;;;;5050775;28;20340;-80
2023/01/01 02:36:30;;;;;;;;;;;12.70;99.90;;;;;;5050921;28;19905;-80
2023/01/01 02:38:57;;;;;;;;;;;12.60;99.90;;;;;;5050644;28;19991;-80
2023/01/01 02:41:33;;;;;;;;;;;12.60;99.90;;;;;;5049346;28;19988;-80
2023/01/01 02:44:19;;;;;;;;;;;12.60;99.90;;;;;;5054276;28;19967;-80
2023/01/01 02:46:51;;;;;;;;;;;12.50;99.90;;;;;;5055326;28;19928;-81
2023/01/01 02:49:17;;;;;;;;;;;12.60;99.90;;;;;;5055298;28;20006;-80
2023/01/01 02:51:46;;;;;;;;;;;12.50;99.90;;;;;;5055089;28;19913;-80
2023/01/01 02:54:33;;;;;;;;;;;12.60;99.90;;;;;;5054842;28;20023;-81
2023/01/01 02:57:11;;;;;;;;;;;12.50;99.90;;;;;;5054892;28;19905;-80
2023/01/01 03:02:46;;;;;;;;;;;12.50;99.90;;;;;;5054686;28;19931;-80
2023/01/01 03:05:27;;;;;;;;;;;12.40;99.90;;;;;;5054534;28;19905;-80
2023/01/01 03:08:09;;;;;;;;;;;12.40;99.90;;;;;;5054782;28;20359;-80
2023/01/01 03:14:07;;;;;;;;;;;12.40;99.90;;;;;;5054835;28;19967;-80
2023/01/01 03:16:51;;;;;;;;;;;12.40;99.90;;;;;;5054109;28;19950;-79
2023/01/01 03:19:27;;;;;;;;;;;12.30;99.90;;;;;;5054826;28;20049;-80
2023/01/01 03:22:02;;;;;;;;;;;12.30;99.90;;;;;;5054708;28;19917;-81
2023/01/01 03:24:37;;;;;;;;;;;12.40;99.90;;;;;;5054772;28;19978;-79
2023/01/01 03:27:10;;;;;;;;;;;12.40;99.90;;;;;;5054663;28;19912;-80
2023/01/01 03:29:38;;;;;;;;;;;12.50;99.90;;;;;;5054575;28;20233;-80
2023/01/01 03:32:05;;;;;;;;;;;12.50;99.90;;;;;;5036479;28;20026;-80
2023/01/01 03:34:33;;;;;;;;;;;12.50;99.90;;;;;;5054708;28;19905;-80
2023/01/01 03:37:00;;;;;;;;;;;12.60;99.90;;;;;;5054640;28;19984;-80
2023/01/01 03:39:32;;;;;;;;;;;12.50;99.90;;;;;;5054855;28;19920;-80
2023/01/01 03:42:30;;;;;;;;;;;12.50;99.90;;;;;;5053796;28;19917;-80
2023/01/01 03:45:18;;;;;;;;;;;12.50;99.90;;;;;;5054073;28;19913;-81
2023/01/01 03:47:52;;;;;;;;;;;12.50;99.90;;;;;;5048427;28;19904;-78
2023/01/01 03:50:19;;;;;;;;;;;12.50;99.90;;;;;;5054214;28;20377;-80
2023/01/01 03:53:02;;;;;;;;;;;12.50;99.90;;;;;;5053888;28;19996;-79
2023/01/01 03:55:34;;;;;;;;;;;12.50;99.90;;;;;;5053997;28;20271;-80
2023/01/01 03:58:01;;;;;;;;;;;12.40;99.90;;;;;;5053703;28;19912;-80
2023/01/01 04:00:30;;;;;;;;;;;12.30;99.90;;;;;;5053672;28;19908;-78
2023/01/01 04:02:56;;;;;;;;;;;12.30;99.90;;;;;;5053569;28;19913;-80
2023/01/01 04:05:23;;;;;;;;;;;12.30;99.90;;;;;;5053840;28;20000;-80
2023/01/01 04:07:50;;;;;;;;;;;12.30;99.90;;;;;;5052716;28;20010;-80
2023/01/01 04:10:16;;;;;;;;;;;12.30;99.90;;;;;;5053728;28;19905;-80
2023/01/01 04:12:52;;;;;;;;;;;12.30;99.90;;;;;;5054139;28;19920;-80
2023/01/01 04:15:19;;;;;;;;;;;12.30;99.90;;;;;;5053798;28;19958;-80
2023/01/01 04:17:45;;;;;;;;;;;12.20;99.90;;;;;;5053905;28;20432;-79
2023/01/01 04:20:11;;;;;;;;;;;12.20;99.90;;;;;;5054038;28;19988;-79
2023/01/01 04:22:44;;;;;;;;;;;12.30;99.90;;;;;;5053809;28;19943;-82
2023/01/01 04:25:11;;;;;;;;;;;12.30;99.90;;;;;;5054217;28;20340;-79
2023/01/01 04:27:37;;;;;;;;;;;12.40;99.90;;;;;;5053907;28;19990;-80
2023/01/01 04:30:04;;;;;;;;;;;12.40;99.90;;;;;;5053331;28;19905;-79
2023/01/01 04:32:30;;;;;;;;;;;12.40;99.90;;;;;;5035510;28;19909;-79
2023/01/01 04:34:57;;;;;;;;;;;12.40;99.90;;;;;;5053544;28;20294;-80
2023/01/01 04:37:23;;;;;;;;;;;12.30;99.90;;;;;;5052209;28;19915;-80
2023/01/01 04:39:59;;;;;;;;;;;12.40;99.90;;;;;;5053488;28;20087;-80
2023/01/01 04:42:26;;;;;;;;;;;12.40;99.90;;;;;;5053196;28;20054;-80
2023/01/01 04:44:51;;;;;;;;;;;12.40;99.90;;;;;;5034627;28;19924;-77
2023/01/01 04:47:17;;;;;;;;;;;12.40;99.90;;;;;;5052124;28;20022;-80
2023/01/01 04:49:43;;;;;;;;;;;12.40;99.90;;;;;;5053286;28;20352;-80
2023/01/01 04:52:09;;;;;;;;;;;12.50;99.90;;;;;;5052696;28;19912;-80
2023/01/01 04:54:44;;;;;;;;;;;12.50;99.90;;;;;;5034817;28;19965;-80
2023/01/01 04:57:14;;;;;;;;;;;12.60;99.90;;;;;;5052097;28;19909;-79
2023/01/01 04:59:40;;;;;;;;;;;12.50;99.90;;;;;;5034725;28;20324;-76
2023/01/01 05:02:07;;;;;;;;;;;12.50;99.90;;;;;;5052968;28;19905;-79
2023/01/01 05:04:33;;;;;;;;;;;12.50;99.90;;;;;;5035200;28;19958;-79
2023/01/01 05:06:58;;;;;;;;;;;12.50;99.90;;;;;;5052324;28;20003;-79
2023/01/01 05:09:24;;;;;;;;;;;12.50;99.90;;;;;;5052875;28;19915;-79
2023/01/01 05:11:59;;;;;;;;;;;12.50;99.90;;;;;;5052660;28;19915;-79
2023/01/01 05:14:25;;;;;;;;;;;12.50;99.90;;;;;;5052695;28;19904;-79
2023/01/01 05:16:51;;;;;;;;;;;12.50;99.90;;;;;;5053071;28;19996;-78
2023/01/01 05:19:20;;;;;;;;;;;12.50;99.90;;;;;;5052988;28;19912;-79
2023/01/01 05:21:58;;;;;;;;;;;12.50;99.90;;;;;;5052294;28;19927;-79
2023/01/01 05:24:23;;;;;;;;;;;12.50;99.90;;;;;;5034290;28;19916;-78
2023/01/01 05:26:49;;;;;;;;;;;12.40;99.90;;;;;;5052465;28;19978;-79
2023/01/01 05:29:15;;;;;;;;;;;12.40;99.90;;;;;;5034032;28;20368;-79
2023/01/01 05:31:43;;;;;;;;;;;12.40;99.90;;;;;;5052579;28;19912;-79
2023/01/01 05:34:08;;;;;;;;;;;12.40;99.90;;;;;;5052137;28;19995;-79
2023/01/01 05:36:37;;;;;;;;;;;12.40;99.90;;;;;;5052552;28;19940;-75
2023/01/01 05:39:05;;;;;;;;;;;12.40;99.90;;;;;;5052061;28;19965;-79
2023/01/01 05:41:32;;;;;;;;;;;12.40;99.90;;;;;;5032719;28;19954;-78
2023/01/01 05:44:01;;;;;;;;;;;12.40;99.90;;;;;;5052150;28;20276;-80
2023/01/01 05:46:30;;;;;;;;;;;12.40;99.90;;;;;;5051859;28;19945;-79
2023/01/01 05:48:58;;;;;;;;;;;12.50;99.90;;;;;;5052231;28;19904;-79
2023/01/01 05:51:27;;;;;;;;;;;12.50;99.90;;;;;;5033990;28;19912;-77
2023/01/01 05:53:53;;;;;;;;;;;12.40;99.90;;;;;;5051856;28;19948;-79
2023/01/01 05:56:28;;;;;;;;;;;12.50;99.90;;;;;;5052017;28;19905;-79
2023/01/01 05:59:03;;;;;;;;;;;12.50;99.90;;;;;;5052000;28;19905;-80
2023/01/01 06:01:30;;;;;;;;;;;12.50;99.90;;;;;;5051905;28;20356;-78
2023/01/01 06:03:56;;;;;;;;;;;12.50;99.90;;;;;;5051801;28;19917;-75
2023/01/01 06:06:30;;;;;;;;;;;12.50;99.90;;;;;;5051856;28;19912;-79
2023/01/01 06:09:00;;;;;;;;;;;12.50;99.90;;;;;;5052149;28;19904;-80
2023/01/01 06:11:27;;;;;;;;;;;12.50;99.90;;;;;;5034378;28;19935;-79
2023/01/01 06:13:54;;;;;;;;;;;12.50;99.90;;;;;;5051902;28;20003;-79
2023/01/01 06:16:21;;;;;;;;;;;12.60;99.90;;;;;;5051880;28;19913;-79
2023/01/01 06:18:59;;;;;;;;;;;12.60;99.90;;;;;;5051088;28;20333;-79
2023/01/01 06:21:28;;;;;;;;;;;12.70;99.90;;;;;;5051540;28;19917;-77
2023/01/01 06:23:56;;;;;;;;;;;12.70;99.90;;;;;;5051299;28;19920;-79
2023/01/01 06:26:23;;;;;;;;;;;12.80;99.90;;;;;;5033074;28;20265;-78
2023/01/01 06:28:49;;;;;;;;;;;12.90;99.90;;;;;;5051494;28;20375;-79
2023/01/01 06:31:17;;;;;;;;;;;12.90;99.90;;;;;;5051288;28;19970;-79
2023/01/01 06:33:50;;;;;;;;;;;13.00;99.90;;;;;;5051302;28;19905;-79
2023/01/01 06:36:17;;;;;;;;;;;13.10;99.90;;;;;;5051603;28;19948;-79
2023/01/01 06:38:44;;;;;;;;;;;13.20;99.90;;;;;;5033233;28;19928;-79
2023/01/01 06:41:13;;;;;;;;;;;13.40;99.90;;;;;;5051211;28;19909;-78
2023/01/01 06:43:40;;;;;;;;;;;13.50;99.90;;;;;;5050848;28;19927;-79
2023/01/01 06:46:16;;;;;;;;;;;13.60;99.90;;;;;;5051124;28;19908;-79
2023/01/01 06:48:42;;;;;;;;;;;13.90;99.90;;;;;;5032384;28;19972;-79
2023/01/01 06:51:09;;;;;;;;;;;14.20;99.90;;;;;;5053431;22;19921;-79
2023/01/01 06:54:00;;;;;;;;;;;14.50;99.90;;;;;;5031030;28;20426;-82
2023/01/01 06:56:26;;;;;;;;;;;14.80;99.90;;;;;;5031440;28;20364;-79
2023/01/01 06:58:53;;;;;;;;;;;15.00;99.90;;;;;;5031458;28;20004;-79
2023/01/01 07:01:21;;;;;;;;;;;14.80;99.90;;;;;;5031322;28;20245;-79
2023/01/01 07:03:53;;;;;;;;;;;14.60;99.90;;;;;;5031367;28;19913;-79
2023/01/01 07:06:30;;;;;;;;;;;14.40;99.90;;;;;;5030898;28;19905;-77
2023/01/01 07:08:56;;;;;;;;;;;14.20;99.90;;;;;;5031026;28;19931;-81
2023/01/01 07:11:31;;;;;;;;;;;14.10;99.90;;;;;;5029096;28;19956;-79
2023/01/01 07:13:57;;;;;;;;;;;13.90;99.90;;;;;;5031100;28;19905;-78
2023/01/01 07:16:27;;;;;;;;;;;14.00;99.90;;;;;;5030796;28;19951;-81
2023/01/01 07:18:53;;;;;;;;;;;14.20;99.90;;;;;;5032315;28;19905;-79
2023/01/01 07:21:49;;;;;;;;;;;14.70;99.90;;;;;;5031685;28;19909;-74
2023/01/01 07:24:16;;;;;;;;;;;15.20;99.90;;;;;;5011491;28;19913;-77
2023/01/01 07:26:43;;;;;;;;;;;15.80;99.90;;;;;;5017922;28;20035;-76
2023/01/01 07:29:15;;;;;;;;;;;16.20;99.90;;;;;;5029061;28;19936;-78
2023/01/01 07:31:42;;;;;;;;;;;16.50;99.90;;;;;;5032595;28;19948;-80
2023/01/01 07:34:15;;;;;;;;;;;16.70;99.90;;;;;;5034227;28;19932;-79
2023/01/01 07:36:41;;;;;;;;;;;17.00;99.90;;;;;;5031978;28;19954;-79
2023/01/01 07:39:07;;;;;;;;;;;17.00;99.90;;;;;;5034003;28;19905;-80
2023/01/01 07:41:35;;;;;;;;;;;17.40;99.90;;;;;;5035924;28;19946;-78
2023/01/01 07:44:02;;;;;;;;;;;17.40;99.90;;;;;;5034931;28;20046;-80
2023/01/01 07:46:28;;;;;;;;;;;17.80;99.90;;;;;;5035048;28;19916;-81
2023/01/01 07:48:55;;;;;;;;;;;18.00;99.90;;;;;;5035306;28;19906;-80
2023/01/01 07:51:27;;;;;;;;;;;17.60;99.90;;;;;;5034565;28;19928;-79
2023/01/01 07:53:53;;;;;;;;;;;17.20;99.90;;;;;;5035171;28;19924;-78
2023/01/01 07:56:19;;;;;;;;;;;16.80;99.90;;;;;;5035202;28;19905;-78
2023/01/01 07:58:46;;;;;;;;;;;16.30;99.90;;;;;;5034732;28;19990;-78
2023/01/01 08:01:16;;;;;;;;;;;16.20;99.90;;;;;;5034748;28;19920;-78
2023/01/01 08:03:54;;;;;;;;;;;16.00;99.90;;;;;;5034858;28;20002;-80
2023/01/01 08:06:21;;;;;;;;;;;15.90;99.90;;;;;;5047341;28;19996;-79
2023/01/01 08:08:52;;;;;;;;;;;15.80;99.90;;;;;;5034684;28;20383;-79
2023/01/01 08:11:18;;;;;;;;;;;15.80;99.90;;;;;;5034767;28;19905;-79
2023/01/01 08:13:46;;;;;;;;;;;15.90;99.90;;;;;;5034328;28;19951;-78
2023/01/01 08:16:15;;;;;;;;;;;16.00;99.90;;;;;;5034356;28;19912;-78
2023/01/01 08:18:43;;;;;;;;;;;16.10;99.90;;;;;;5034325;28;19905;-78
2023/01/01 08:21:09;;;;;;;;;;;16.20;99.90;;;;;;5034753;28;19912;-78
2023/01/01 08:23:34;;;;;;;;;;;16.00;99.90;;;;;;5034016;28;19929;-75
2023/01/01 08:26:04;;;;;;;;;;;16.00;99.90;;;;;;5034178;28;19905;-78
2023/01/01 08:28:51;;;;;;;;;;;16.10;99.90;;;;;;5034408;28;20357;-80
2023/01/01 08:31:17;;;;;;;;;;;16.10;99.90;;;;;;5033849;28;19981;-79
2023/01/01 08:33:42;;;;;;;;;;;16.20;99.90;;;;;;5034116;28;20043;-78
2023/01/01 08:36:09;;;;;;;;;;;16.20;99.90;;;;;;5033716;28;19912;-79
2023/01/01 08:38:39;;;;;;;;;;;16.20;99.90;;;;;;5033823;28;20040;-80
2023/01/01 08:41:05;;;;;;;;;;;16.40;99.90;;;;;;5044557;28;19905;-78
2023/01/01 08:43:30;;;;;;;;;;;16.40;99.90;;;;;;5053414;28;19931;-79
2023/01/01 08:45:56;;;;;;;;;;;16.40;99.90;;;;;;5053621;28;19905;-77
2023/01/01 08:48:22;;;;;;;;;;;16.50;99.90;;;;;;5053638;28;19959;-77
2023/01/01 08:50:54;;;;;;;;;;;16.70;99.90;;;;;;5053766;28;19904;-78
2023/01/01 08:53:21;;;;;;;;;;;17.00;99.90;;;;;;5052090;28;20011;-78
2023/01/01 08:55:57;;;;;;;;;;;17.30;99.90;;;;;;5053486;28;19912;-80
2023/01/01 08:58:23;;;;;;;;;;;17.50;99.90;;;;;;5053948;28;19927;-78
2023/01/01 09:00:50;;;;;;;;;;;17.40;99.90;;;;;;5049222;28;19912;-79
2023/01/01 09:03:19;;;;;;;;;;;17.70;99.90;;;;;;5033427;28;19913;-78
2023/01/01 09:05:45;;;;;;;;;;;17.80;99.90;;;;;;5033039;28;20008;-78
2023/01/01 09:08:11;;;;;;;;;;;17.80;99.90;;;;;;5033444;28;20028;-78
2023/01/01 09:10:44;;;;;;;;;;;17.40;99.90;;;;;;5040361;28;19947;-78
2023/01/01 09:13:14;;;;;;;;;;;17.60;99.90;;;;;;5052952;28;19951;-78
2023/01/01 09:15:42;;;;;;;;;;;17.30;99.90;;;;;;5052667;28;19944;-78
2023/01/01 09:18:09;;;;;;;;;;;17.30;99.90;;;;;;5039352;28;20041;-78
2023/01/01 09:20:38;;;;;;;;;;;17.60;99.90;;;;;;5033686;28;19905;-77
2023/01/01 09:23:04;;;;;;;;;;;17.60;99.90;;;;;;5013968;28;19909;-78
2023/01/01 09:25:30;;;;;;;;;;;17.50;99.90;;;;;;5013928;28;19905;-80
2023/01/01 09:28:06;;;;;;;;;;;17.20;99.90;;;;;;5029587;28;19958;-78
2023/01/01 09:30:38;;;;;;;;;;;17.40;99.90;;;;;;5031885;28;20237;-78
2023/01/01 09:33:04;;;;;;;;;;;17.60;99.90;;;;;;5033474;28;19999;-77
2023/01/01 09:35:30;;;;;;;;;;;17.20;99.90;;;;;;5033513;28;19944;-76
2023/01/01 09:37:56;;;;;;;;;;;17.60;99.90;;;;;;5033444;28;20300;-75
2023/01/01 09:40:43;;;;;;;;;;;17.80;99.90;;;;;;5038827;28;20372;-75
2023/01/01 09:43:21;;;;;;;;;;;17.50;99.90;;;;;;5053176;28;19920;-75
2023/01/01 09:46:00;;;;;;;;;;;17.40;99.90;;;;;;5053153;28;20409;-74
2023/01/01 09:48:28;;;;;;;;;;;17.70;99.90;;;;;;5052915;28;19928;-75
2023/01/01 09:50:54;;;;;;;;;;;17.30;99.90;;;;;;5052189;28;20272;-72
2023/01/01 09:53:36;;;;;;;;;;;17.10;99.90;;;;;;5052996;28;20020;-74
2023/01/01 09:56:03;;;;;;;;;;;17.00;99.90;;;;;;5052471;28;20485;-74
2023/01/01 09:58:51;;;;;;;;;;;17.20;99.90;;;;;;5059729;22;19920;-74
2023/01/01 10:01:39;;;;;;;;;;;17.40;99.90;;;;;;5034437;28;19905;-74
2023/01/01 10:04:25;;;;;;;;;;;17.60;99.90;;;;;;5046745;28;19912;-74
2023/01/01 10:07:09;;;;;;;;;;;17.60;99.90;;;;;;5053154;28;20353;-74
2023/01/01 10:09:45;;;;;;;;;;;17.40;99.90;;;;;;5034923;28;20268;-73
2023/01/01 10:12:20;;;;;;;;;;;17.80;99.90;;;;;;5032511;28;19966;-74
2023/01/01 10:14:53;;;;;;;;;;;18.10;99.90;;;;;;5032329;28;20403;-75
2023/01/01 10:17:24;;;;;;;;;;;18.20;99.90;;;;;;5032470;28;19905;-74
2023/01/01 10:19:51;;;;;;;;;;;18.30;99.90;;;;;;5033062;28;19905;-74
2023/01/01 10:22:22;;;;;;;;;;;18.30;99.90;;;;;;5032583;28;19959;-74
2023/01/01 10:25:02;;;;;;;;;;;18.50;99.90;;;;;;5014758;28;19957;-75
2023/01/01 10:27:59;;;;;;;;;;;18.70;99.90;;;;;;5033139;28;20020;-74
2023/01/01 10:30:25;;;;;;;;;;;18.80;99.90;;;;;;5033396;28;19979;-74
2023/01/01 10:33:00;;;;;;;;;;;18.70;99.90;;;;;;5052784;28;20004;-74
2023/01/01 10:35:30;;;;;;;;;;;18.70;99.90;;;;;;5052349;28;19905;-74
2023/01/01 10:37:58;;;;;;;;;;;18.70;99.90;;;;;;5034285;28;19905;-73
2023/01/01 10:40:25;;;;;;;;;;;18.90;99.90;;;;;;5052043;28;19999;-74
2023/01/01 10:42:59;;;;;;;;;;;19.10;99.90;;;;;;5052139;28;19905;-74
2023/01/01 10:45:33;;;;;;;;;;;19.10;99.90;;;;;;5052048;28;20372;-74
2023/01/01 10:48:29;;;;;;;;;;;19.10;99.90;;;;;;5052258;28;19950;-75
2023/01/01 10:50:56;;;;;;;;;;;19.20;99.90;;;;;;5051530;28;19908;-75
2023/01/01 10:53:34;;;;;;;;;;;19.30;99.90;;;;;;5033929;28;19962;-74
2023/01/01 10:56:06;;;;;;;;;;;19.40;99.90;;;;;;5052057;28;20379;-74
2023/01/01 10:58:53;;;;;;;;;;;19.50;99.90;;;;;;5051872;28;20004;-74
2023/01/01 11:01:21;;;;;;;;;;;19.60;99.90;;;;;;5051907;28;19974;-74
2023/01/01 11:03:56;;;;;;;;;;;19.90;99.90;;;;;;5051438;28;20117;-74
2023/01/01 11:06:27;;;;;;;;;;;20.00;99.90;;;;;;5053999;28;20003;-74
2023/01/01 11:08:54;;;;;;;;;;;20.10;99.90;;;;;;5055407;28;19908;-73
2023/01/01 11:11:22;;;;;;;;;;;20.20;99.90;;;;;;5037058;28;20412;-74
2023/01/01 11:13:53;;;;;;;;;;;20.20;99.90;;;;;;5055039;28;19904;-74
2023/01/01 11:16:19;;;;;;;;;;;20.20;99.90;;;;;;5054993;28;20011;-74
2023/01/01 11:19:05;;;;;;;;;;;20.10;99.90;;;;;;5054772;28;20325;-75
2023/01/01 11:21:37;;;;;;;;;;;20.40;99.90;;;;;;5054452;28;19944;-74
2023/01/01 11:24:09;;;;;;;;;;;20.30;99.90;;;;;;5055140;28;19968;-74
2023/01/01 11:26:41;;;;;;;;;;;20.00;99.90;;;;;;5037038;28;19952;-77
2023/01/01 11:29:27;;;;;;;;;;;20.10;99.90;;;;;;5054980;28;19968;-74
2023/01/01 11:31:57;;;;;;;;;;;20.00;99.90;;;;;;5054670;28;19908;-76
2023/01/01 11:34:28;;;;;;;;;;;20.00;99.90;;;;;;5055119;28;19953;-75
2023/01/01 11:37:26;;;;;;;;;;;20.10;99.90;;;;;;5055065;28;19908;-75
2023/01/01 11:39:54;;;;;;;;;;;20.00;99.90;;;;;;4973126;28;20338;-75
2023/01/01 11:42:30;;;;;;;;;;;20.10;99.90;;;;;;4974258;28;20362;-74
2023/01/01 11:45:00;;;;;;;;;;;20.20;99.90;;;;;;4973727;28;19936;-74
2023/01/01 11:47:28;;;;;;;;;;;20.30;99.90;;;;;;4973787;28;19906;-75
2023/01/01 11:50:01;;;;;;;;;;;20.40;99.90;;;;;;4973642;28;20359;-75
2023/01/01 11:52:53;;;;;;;;;;;20.50;99.90;;;;;;4973601;28;19988;-75
2023/01/01 11:55:27;;;;;;;;;;;20.30;99.90;;;;;;4970821;28;19906;-75
2023/01/01 11:57:53;;;;;;;;;;;20.30;99.90;;;;;;4975354;28;19921;-71
2023/01/01 12:00:47;;;;;;;;;;;20.40;99.90;;;;;;4992774;28;20390;-76
2023/01/01 12:03:42;;;;;;;;;;;20.30;99.90;;;;;;4975574;28;19921;-76
2023/01/01 12:06:30;;;;;;;;;;;19.90;99.90;;;;;;4935253;29;20237;-75
2023/01/01 12:09:12;;;;;;;;;;;19.90;99.90;;;;;;4934630;29;19907;-76
2023/01/01 12:11:51;;;;;;;;;;;20.00;99.90;;;;;;4934864;29;20244;-75
2023/01/01 12:14:35;;;;;;;;;;;20.30;99.90;;;;;;4935378;28;20292;-76
2023/01/01 12:17:20;;;;;;;;;;;20.20;99.90;;;;;;4959941;28;19905;-79
2023/01/01 12:19:46;;;;;;;;;;;20.20;99.90;;;;;;4992444;28;19912;-80
2023/01/01 12:22:14;;;;;;;;;;;20.20;99.90;;;;;;4992461;28;19921;-75
2023/01/01 12:24:44;;;;;;;;;;;20.00;99.90;;;;;;4992566;28;19920;-77
2023/01/01 12:27:21;;;;;;;;;;;20.00;99.90;;;;;;4992513;28;20004;-75
2023/01/01 12:29:47;;;;;;;;;;;20.00;99.90;;;;;;4972406;28;20392;-74
2023/01/01 12:32:23;;;;;;;;;;;20.00;99.90;;;;;;4974190;28;19945;-74
2023/01/01 12:34:58;;;;;;;;;;;20.00;99.90;;;;;;4973585;28;20001;-74
2023/01/01 12:37:39;;;;;;;;;;;19.90;99.90;;;;;;4973023;28;19910;-75
2023/01/01 12:40:05;;;;;;;;;;;19.80;99.90;;;;;;4973309;28;19912;-76
2023/01/01 12:42:44;;;;;;;;;;;19.80;99.90;;;;;;5012317;28;20287;-75
2023/01/01 12:45:14;;;;;;;;;;;19.80;99.90;;;;;;5053648;28;19913;-76
2023/01/01 12:47:58;;;;;;;;;;;19.70;99.90;;;;;;5054025;28;20280;-76
2023/01/01 12:53:25;;;;;;;;;;;19.40;99.90;;;;;;5046216;28;19947;-75
2023/01/01 12:55:51;;;;;;;;;;;19.40;99.90;;;;;;5054023;28;19916;-77
2023/01/01 12:58:20;;;;;;;;;;;19.60;99.90;;;;;;5053243;28;19922;-76
2023/01/01 13:01:04;;;;;;;;;;;19.80;99.90;;;;;;5053564;28;19912;-75
2023/01/01 13:03:33;;;;;;;;;;;19.70;99.90;;;;;;5053614;28;19921;-77
2023/01/01 13:06:00;;;;;;;;;;;19.60;99.90;;;;;;5053481;28;20007;-76
2023/01/01 13:08:26;;;;;;;;;;;19.60;99.90;;;;;;5053333;28;20383;-75
2023/01/01 13:10:53;;;;;;;;;;;19.40;99.90;;;;;;5052752;28;19904;-74
2023/01/01 13:13:19;;;;;;;;;;;19.60;99.90;;;;;;5052705;28;19959;-77
2023/01/01 13:15:47;;;;;;;;;;;19.60;99.90;;;;;;5051732;28;19928;-75
2023/01/01 13:18:21;;;;;;;;;;;19.50;99.90;;;;;;5052314;28;19909;-77
2023/01/01 13:21:25;;;;;;;;;;;19.50;99.90;;;;;;5052416;28;19987;-77
2023/01/01 13:24:11;;;;;;;;;;;19.30;99.90;;;;;;4951836;29;19910;-78
2023/01/01 13:26:37;;;;;;;;;;;19.30;99.90;;;;;;4951545;28;19906;-75
2023/01/01 13:29:09;;;;;;;;;;;19.30;99.90;;;;;;4952759;29;19913;-75
2023/01/01 13:31:57;;;;;;;;;;;19.40;99.90;;;;;;4952603;29;19906;-76
2023/01/01 13:34:29;;;;;;;;;;;19.30;99.90;;;;;;4952552;29;19917;-75
2023/01/01 13:37:10;;;;;;;;;;;19.20;99.90;;;;;;4952285;29;19907;-75
2023/01/01 13:39:52;;;;;;;;;;;19.10;99.90;;;;;;4952979;29;19914;-75
2023/01/01 13:42:36;;;;;;;;;;;19.00;99.90;;;;;;4952308;29;19913;-75
2023/01/01 13:45:25;;;;;;;;;;;19.00;99.90;;;;;;4952837;29;19915;-77
2023/01/01 13:48:09;;;;;;;;;;;19.00;99.90;;;;;;4964450;22;20351;-75
2023/01/01 13:51:04;;;;;;;;;;;18.80;99.90;;;;;;5052460;28;19943;-78
2023/01/01 13:53:37;;;;;;;;;;;18.60;99.90;;;;;;5067702;22;20050;-75
2023/01/01 13:59:54;;;;;;;;;;;18.70;99.90;;;;;;4990992;28;19913;-75
2023/01/01 14:02:22;;;;;;;;;;;18.70;99.90;;;;;;5006400;22;19912;-75
2023/01/01 14:05:01;;;;;;;;;;;18.60;99.90;;;;;;5072244;28;19916;-76
2023/01/01 14:07:39;;;;;;;;;;;18.60;99.90;;;;;;5086389;22;19924;-76
2023/01/01 14:10:16;;;;;;;;;;;18.90;99.90;;;;;;5050454;28;19925;-77
2023/01/01 14:12:42;;;;;;;;;;;18.90;99.90;;;;;;5050820;28;19985;-76
2023/01/01 14:18:23;;;;;;;;;;;18.90;99.90;;;;;;5059721;22;19921;-76
2023/01/01 14:20:50;;;;;;;;;;;18.90;99.90;;;;;;5052175;28;19905;-76
2023/01/01 14:23:29;;;;;;;;;;;18.90;99.90;;;;;;5050679;28;19960;-75
2023/01/01 14:25:55;;;;;;;;;;;19.00;99.90;;;;;;5052516;28;19905;-75
2023/01/01 14:28:24;;;;;;;;;;;19.00;99.90;;;;;;5052135;28;19904;-76
2023/01/01 14:30:58;;;;;;;;;;;19.00;99.90;;;;;;5052079;28;19905;-76
2023/01/01 14:33:29;;;;;;;;;;;19.00;99.90;;;;;;5051761;28;20015;-76
2023/01/01 14:36:03;;;;;;;;;;;18.90;99.90;;;;;;5064856;22;19921;-76
2023/01/01 14:38:41;;;;;;;;;;;18.90;99.90;;;;;;5051082;28;19912;-75
2023/01/01 14:41:16;;;;;;;;;;;18.80;99.90;;;;;;5059617;22;20280;-76
2023/01/01 14:43:45;;;;;;;;;;;18.80;99.90;;;;;;5030812;28;19921;-76
2023/01/01 14:46:19;;;;;;;;;;;18.80;99.90;;;;;;5030894;28;19905;-75
2023/01/01 14:49:06;;;;;;;;;;;18.80;99.90;;;;;;5031356;28;19913;-76
2023/01/01 14:51:32;;;;;;;;;;;18.70;99.90;;;;;;5031066;28;20383;-75
2023/01/01 14:53:59;;;;;;;;;;;18.70;99.90;;;;;;5030893;28;19909;-76
2023/01/01 14:56:54;;;;;;;;;;;18.60;99.90;;;;;;5031168;28;20286;-77
2023/01/01 14:59:26;;;;;;;;;;;18.40;99.90;;;;;;5043814;28;19909;-75
2023/01/01 15:02:00;;;;;;;;;;;18.30;99.90;;;;;;5030435;28;19995;-74